createdAt,value
2022-10-06T00:01:13.760Z,12.93
2022-10-06T00:03:47.046Z,12.05
2022-10-06T00:06:16.712Z,12.15
2022-10-06T00:08:45.241Z,13.40
2022-10-06T00:11:14.001Z,12.20
2022-10-06T00:13:41.555Z,15.48
2022-10-06T00:16:11.330Z,14.02
2022-10-06T00:18:38.595Z,14.27
2022-10-06T00:21:06.138Z,13.48
2022-10-06T00:23:33.488Z,12.50
2022-10-06T00:26:00.369Z,13.07
2022-10-06T00:28:28.081Z,13.63
2022-10-06T00:30:56.424Z,14.68
2022-10-06T00:33:24.205Z,14.10
2022-10-06T00:36:00.889Z,11.85
2022-10-06T00:38:28.799Z,17.77
2022-10-06T00:40:56.049Z,12.32
2022-10-06T00:43:47.173Z,11.68
2022-10-06T00:46:19.102Z,14.23
2022-10-06T00:48:49.251Z,11.18
2022-10-06T00:51:16.825Z,12.85
2022-10-06T00:53:43.844Z,13.45
2022-10-06T00:56:12.033Z,12.30
2022-10-06T00:58:39.282Z,11.85
2022-10-06T01:01:07.900Z,14.55
2022-10-06T01:03:39.692Z,15.10
2022-10-06T01:06:07.705Z,11.98
2022-10-06T01:08:35.467Z,17.08
2022-10-06T01:11:03.027Z,12.38
2022-10-06T01:13:31.427Z,11.35
2022-10-06T01:16:05.759Z,15.85
2022-10-06T01:18:33.957Z,14.25
2022-10-06T01:21:18.193Z,14.02
2022-10-06T01:23:45.641Z,15.13
2022-10-06T01:26:14.792Z,12.93
2022-10-06T01:28:41.843Z,10.63
2022-10-06T01:31:09.622Z,13.63
2022-10-06T01:33:36.584Z,10.18
2022-10-06T01:36:04.855Z,13.60
2022-10-06T01:38:32.752Z,11.20
2022-10-06T01:41:03.226Z,13.48
2022-10-06T01:43:30.295Z,11.82
2022-10-06T01:45:58.841Z,9.00
2022-10-06T01:48:27.204Z,12.27
2022-10-06T01:50:56.835Z,11.73
2022-10-06T01:53:23.983Z,13.32
2022-10-06T01:55:50.898Z,11.43
2022-10-06T01:58:23.604Z,14.77
2022-10-06T02:00:51.123Z,12.40
2022-10-06T02:03:18.288Z,13.40
2022-10-06T02:05:45.609Z,11.00
2022-10-06T02:08:13.394Z,12.27
2022-10-06T02:10:41.410Z,11.43
2022-10-06T02:13:14.926Z,8.48
2022-10-06T02:15:41.998Z,13.07
2022-10-06T02:18:09.137Z,13.55
2022-10-06T02:20:36.303Z,10.85
2022-10-06T02:23:03.243Z,10.73
2022-10-06T02:25:30.112Z,11.52
2022-10-06T02:27:57.312Z,9.52
2022-10-06T02:30:24.322Z,10.88
2022-10-06T02:32:51.784Z,12.70
2022-10-06T02:35:20.097Z,9.75
2022-10-06T02:37:48.872Z,8.95
2022-10-06T02:40:18.478Z,11.55
2022-10-06T02:42:46.050Z,8.35
2022-10-06T02:45:16.717Z,11.85
2022-10-06T02:47:44.324Z,13.32
2022-10-06T02:50:13.043Z,10.77
2022-10-06T02:52:42.778Z,9.80
2022-10-06T02:55:10.939Z,9.57
2022-10-06T02:57:38.414Z,8.43
2022-10-06T03:00:07.386Z,11.18
2022-10-06T03:02:34.969Z,11.50
2022-10-06T03:05:02.540Z,10.18
2022-10-06T03:07:29.787Z,10.52
2022-10-06T03:09:57.632Z,11.73
2022-10-06T03:12:25.628Z,9.57
2022-10-06T03:14:52.636Z,13.63
2022-10-06T03:17:20.343Z,10.20
2022-10-06T03:19:52.390Z,12.25
2022-10-06T03:22:19.413Z,14.35
2022-10-06T03:24:51.350Z,16.02
2022-10-06T03:27:18.408Z,10.48
2022-10-06T03:29:46.088Z,8.57
2022-10-06T03:32:14.377Z,15.32
2022-10-06T03:34:43.346Z,9.98
2022-10-06T03:37:13.220Z,9.15
2022-10-06T03:39:40.199Z,8.88
2022-10-06T03:42:07.471Z,7.75
2022-10-06T03:44:35.165Z,12.25
2022-10-06T03:47:02.776Z,8.82
2022-10-06T03:49:31.228Z,11.43
2022-10-06T03:51:58.100Z,12.45
2022-10-06T03:54:28.618Z,8.45
2022-10-06T03:56:56.629Z,9.63
2022-10-06T03:59:24.295Z,8.10
2022-10-06T04:01:53.198Z,11.93
2022-10-06T04:04:28.643Z,9.48
2022-10-06T04:07:00.751Z,13.15
2022-10-06T04:09:27.889Z,7.90
2022-10-06T04:11:54.716Z,9.98
2022-10-06T04:14:21.631Z,8.18
2022-10-06T04:16:50.119Z,11.80
2022-10-06T04:19:22.197Z,11.82
2022-10-06T04:21:52.428Z,10.00
2022-10-06T04:24:22.045Z,9.88
2022-10-06T04:26:50.135Z,11.93
2022-10-06T04:29:18.942Z,14.50
2022-10-06T04:31:50.602Z,10.52
2022-10-06T04:34:43.624Z,9.65
2022-10-06T04:37:10.819Z,9.35
2022-10-06T04:39:38.983Z,11.57
2022-10-06T04:42:07.457Z,8.88
2022-10-06T04:44:34.466Z,10.45
2022-10-06T04:47:04.384Z,10.75
2022-10-06T04:49:32.026Z,9.35
2022-10-06T04:51:59.204Z,8.48
2022-10-06T04:54:33.383Z,10.20
2022-10-06T04:57:01.398Z,10.70
2022-10-06T04:59:48.900Z,7.97
2022-10-06T05:02:17.568Z,9.80
2022-10-06T05:04:45.781Z,9.15
2022-10-06T05:07:15.136Z,11.50
2022-10-06T05:09:42.673Z,10.52
2022-10-06T05:12:11.581Z,8.85
2022-10-06T05:14:39.503Z,9.73
2022-10-06T05:17:06.710Z,10.45
2022-10-06T05:19:35.176Z,12.45
2022-10-06T05:22:02.867Z,8.48
2022-10-06T05:24:31.765Z,10.38
2022-10-06T05:27:02.080Z,16.27
2022-10-06T05:29:29.757Z,12.10
2022-10-06T05:31:57.223Z,19.70
2022-10-06T05:34:24.783Z,16.83
2022-10-06T05:36:52.154Z,9.55
2022-10-06T05:39:19.109Z,13.85
2022-10-06T05:41:50.093Z,11.32
2022-10-06T05:44:17.554Z,17.90
2022-10-06T05:46:45.710Z,23.63
2022-10-06T05:49:13.442Z,12.57
2022-10-06T05:51:45.900Z,10.05
2022-10-06T05:54:17.978Z,21.30
2022-10-06T05:56:44.887Z,12.75
2022-10-06T05:59:12.078Z,12.18
2022-10-06T06:01:41.288Z,13.45
2022-10-06T06:04:16.426Z,13.98
2022-10-06T06:06:48.720Z,15.90
2022-10-06T06:09:21.542Z,12.70
2022-10-06T06:11:54.077Z,9.45
2022-10-06T06:15:08.972Z,9.43
2022-10-06T06:17:41.228Z,9.13
2022-10-06T06:20:09.041Z,11.75
2022-10-06T06:22:35.991Z,9.90
2022-10-06T06:25:04.871Z,8.02
2022-10-06T06:27:32.266Z,9.00
2022-10-06T06:29:59.193Z,14.13
2022-10-06T06:32:28.124Z,11.35
2022-10-06T06:34:56.228Z,12.60
2022-10-06T06:37:24.196Z,15.77
2022-10-06T06:39:51.510Z,15.57
2022-10-06T06:42:18.846Z,16.83
2022-10-06T06:47:40.256Z,11.10
2022-10-06T06:50:10.520Z,10.10
2022-10-06T06:52:39.284Z,12.40
2022-10-06T06:55:09.472Z,13.70
2022-10-06T06:57:36.849Z,6.75
2022-10-06T07:00:08.059Z,12.35
2022-10-06T07:02:36.915Z,24.55
2022-10-06T07:05:04.745Z,17.70
2022-10-06T07:07:32.295Z,11.85
2022-10-06T07:09:59.974Z,9.95
2022-10-06T07:12:26.963Z,7.22
2022-10-06T07:15:16.063Z,13.90
2022-10-06T07:18:05.164Z,8.10
2022-10-06T07:20:50.768Z,13.48
2022-10-06T07:23:39.088Z,9.60
2022-10-06T07:26:13.312Z,9.07
2022-10-06T07:28:42.418Z,9.10
2022-10-06T07:31:10.461Z,10.30
2022-10-06T07:33:39.221Z,8.38
2022-10-06T07:36:06.524Z,16.10
2022-10-06T07:38:34.160Z,24.17
2022-10-06T07:43:53.942Z,14.82
2022-10-06T07:46:22.256Z,16.13
2022-10-06T07:49:03.699Z,13.77
2022-10-06T07:51:31.801Z,10.70
2022-10-06T07:53:59.813Z,14.40
2022-10-06T07:56:32.608Z,12.00
2022-10-06T07:58:59.871Z,10.38
2022-10-06T08:01:29.640Z,10.13
2022-10-06T08:03:57.324Z,6.88
2022-10-06T08:06:24.559Z,10.68
2022-10-06T08:08:56.606Z,7.53
2022-10-06T08:11:24.476Z,9.80
2022-10-06T08:13:52.135Z,6.97
2022-10-06T08:16:24.610Z,6.95
2022-10-06T08:18:53.881Z,8.40
2022-10-06T08:21:27.104Z,12.75
2022-10-06T08:23:55.983Z,11.82
2022-10-06T08:26:25.063Z,8.93
2022-10-06T08:28:55.315Z,9.55
2022-10-06T08:31:23.131Z,11.73
2022-10-06T08:33:54.615Z,10.50
2022-10-06T08:36:21.747Z,8.73
2022-10-06T08:38:51.549Z,10.82
2022-10-06T08:41:27.589Z,8.48
2022-10-06T08:44:02.756Z,12.10
2022-10-06T08:46:36.463Z,9.88
2022-10-06T08:49:04.012Z,10.25
2022-10-06T08:52:00.672Z,7.25
2022-10-06T08:54:58.955Z,15.75
2022-10-06T08:57:28.864Z,9.60
2022-10-06T08:59:59.174Z,8.90
2022-10-06T09:02:34.906Z,8.25
2022-10-06T09:05:05.678Z,9.95
2022-10-06T09:07:52.427Z,8.48
2022-10-06T09:10:22.532Z,12.35
2022-10-06T09:13:00.781Z,7.35
2022-10-06T09:15:49.977Z,7.60
2022-10-06T09:18:56.032Z,10.65
2022-10-06T09:23:54.003Z,8.80
2022-10-06T09:26:31.657Z,8.70
2022-10-06T09:28:59.277Z,6.53
2022-10-06T09:31:44.587Z,6.13
2022-10-06T09:34:45.742Z,7.97
2022-10-06T09:37:13.791Z,7.30
2022-10-06T09:39:51.879Z,11.07
2022-10-06T09:42:35.497Z,11.82
2022-10-06T09:45:23.591Z,9.77
2022-10-06T09:47:50.894Z,15.00
2022-10-06T09:50:22.160Z,5.07
2022-10-06T09:53:03.440Z,9.80
2022-10-06T09:55:33.915Z,6.50
2022-10-06T09:58:01.898Z,11.43
2022-10-06T10:00:34.896Z,11.43
2022-10-06T10:03:09.008Z,5.63
2022-10-06T10:05:46.713Z,8.90
2022-10-06T10:08:13.726Z,8.50
2022-10-06T10:10:41.748Z,6.78
2022-10-06T10:13:26.010Z,6.20
2022-10-06T10:15:59.308Z,11.38
2022-10-06T10:18:30.251Z,6.22
2022-10-06T10:21:08.629Z,6.55
2022-10-06T10:23:55.289Z,7.55
2022-10-06T10:26:40.814Z,7.93
2022-10-06T10:29:32.953Z,8.13
2022-10-06T10:32:12.224Z,8.02
2022-10-06T10:34:52.220Z,6.57
2022-10-06T10:37:32.915Z,7.38
2022-10-06T10:40:08.587Z,7.38
2022-10-06T10:43:01.661Z,6.28
2022-10-06T10:45:34.300Z,6.38
2022-10-06T10:48:07.036Z,8.43
2022-10-06T10:50:38.794Z,9.13
2022-10-06T10:53:15.194Z,8.75
2022-10-06T10:55:46.804Z,9.95
2022-10-06T10:58:21.339Z,11.88
2022-10-06T11:00:58.577Z,6.78
2022-10-06T11:03:25.827Z,8.27
2022-10-06T11:05:52.762Z,8.85
2022-10-06T11:08:34.846Z,8.40
2022-10-06T11:11:08.454Z,7.50
2022-10-06T11:13:44.878Z,7.47
2022-10-06T11:16:42.931Z,12.38
2022-10-06T11:19:30.075Z,10.98
2022-10-06T11:22:14.879Z,7.80
2022-10-06T11:25:04.261Z,8.70
2022-10-06T11:28:20.032Z,11.65
2022-10-06T11:31:22.759Z,8.30
2022-10-06T11:33:55.591Z,8.95
2022-10-06T11:36:58.439Z,7.13
2022-10-06T11:39:37.904Z,10.60
2022-10-06T11:42:13.571Z,18.45
2022-10-06T11:44:45.338Z,11.35
2022-10-06T11:49:52.288Z,15.68
2022-10-06T11:52:19.224Z,7.78
2022-10-06T11:54:57.902Z,5.35
2022-10-06T11:57:30.860Z,4.93
2022-10-06T12:00:04.419Z,7.47
2022-10-06T12:02:39.361Z,10.05
2022-10-06T12:05:49.373Z,11.07
2022-10-06T12:08:00.200Z,5.45
2022-10-06T12:10:30.313Z,5.60
2022-10-06T12:13:51.436Z,3.38
2022-10-06T12:19:31.628Z,10.70
2022-10-06T12:22:17.687Z,7.30
2022-10-06T12:24:54.607Z,6.60
2022-10-06T12:27:39.757Z,7.35
2022-10-06T12:30:23.538Z,6.65
2022-10-06T12:32:57.671Z,3.92
2022-10-06T12:35:40.299Z,6.68
2022-10-06T12:38:35.644Z,8.98
2022-10-06T12:41:02.636Z,10.13
2022-10-06T12:43:43.953Z,11.32
2022-10-06T12:46:22.931Z,9.98
2022-10-06T12:49:34.552Z,10.43
2022-10-06T12:52:17.270Z,13.25
2022-10-06T12:54:55.984Z,7.55
2022-10-06T12:57:28.496Z,10.50
2022-10-06T12:59:55.727Z,8.55
2022-10-06T13:02:27.415Z,8.25
2022-10-06T13:04:59.151Z,8.20
2022-10-06T13:07:29.461Z,5.55
2022-10-06T13:10:15.094Z,4.90
2022-10-06T13:12:46.741Z,7.30
2022-10-06T13:15:22.326Z,10.43
2022-10-06T13:17:54.497Z,6.68
2022-10-06T13:20:36.381Z,5.82
2022-10-06T13:23:18.743Z,6.63
2022-10-06T13:25:50.311Z,7.53
2022-10-06T13:28:36.091Z,8.38
2022-10-06T13:31:11.928Z,6.93
2022-10-06T13:33:42.315Z,5.15
2022-10-06T13:36:11.092Z,5.50
2022-10-06T13:38:39.466Z,8.85
2022-10-06T13:41:07.074Z,17.35
2022-10-06T13:43:40.417Z,5.15
2022-10-06T13:46:11.206Z,6.95
2022-10-06T13:48:46.085Z,5.33
2022-10-06T13:51:29.746Z,7.03
2022-10-06T13:53:59.053Z,3.55
2022-10-06T13:56:36.243Z,4.90
2022-10-06T13:59:32.554Z,7.60
2022-10-06T14:02:22.063Z,5.43
2022-10-06T14:05:30.477Z,4.22
2022-10-06T14:08:25.444Z,2.33
2022-10-06T14:11:02.135Z,7.20
2022-10-06T14:13:38.334Z,3.22
2022-10-06T14:16:08.305Z,5.50
2022-10-06T14:18:41.567Z,4.55
2022-10-06T14:21:28.876Z,6.65
2022-10-06T14:23:56.835Z,6.30
2022-10-06T14:26:32.467Z,4.68
2022-10-06T14:28:59.650Z,2.03
2022-10-06T14:31:28.490Z,5.50
2022-10-06T14:33:57.112Z,5.95
2022-10-06T14:36:29.879Z,5.60
2022-10-06T14:38:58.634Z,4.55
2022-10-06T14:41:28.746Z,6.18
2022-10-06T14:44:03.821Z,6.75
2022-10-06T14:46:31.028Z,2.72
2022-10-06T14:48:58.856Z,5.03
2022-10-06T14:51:27.340Z,5.53
2022-10-06T14:53:56.712Z,3.38
2022-10-06T14:56:26.586Z,3.97
2022-10-06T14:58:53.688Z,3.58
2022-10-06T15:01:23.567Z,2.45
2022-10-06T15:03:56.125Z,7.00
2022-10-06T15:06:42.456Z,2.28
2022-10-06T15:09:10.430Z,4.95
2022-10-06T15:11:38.245Z,6.63
2022-10-06T15:14:06.805Z,9.30
2022-10-06T15:16:34.709Z,3.70
2022-10-06T15:19:05.027Z,2.15
2022-10-06T15:21:35.425Z,5.20
2022-10-06T15:24:04.337Z,4.13
2022-10-06T15:26:50.196Z,4.72
2022-10-06T15:29:18.218Z,4.47
2022-10-06T15:31:54.942Z,5.82
2022-10-06T15:34:25.747Z,4.85
2022-10-06T15:36:54.169Z,2.60
2022-10-06T15:39:23.867Z,5.03
2022-10-06T15:41:51.762Z,9.18
2022-10-06T15:44:19.706Z,4.68
2022-10-06T15:46:56.741Z,7.10
2022-10-06T15:49:32.987Z,2.80
2022-10-06T15:52:03.236Z,7.07
2022-10-06T15:54:39.576Z,3.30
2022-10-06T15:57:17.891Z,5.88
2022-10-06T15:59:46.922Z,6.68
2022-10-06T16:02:16.766Z,5.20
2022-10-06T16:04:45.365Z,7.05
2022-10-06T16:07:15.321Z,1.95
2022-10-06T16:09:46.645Z,5.00
2022-10-06T16:12:20.112Z,3.42
2022-10-06T16:14:47.624Z,2.67
2022-10-06T16:17:15.584Z,2.80
2022-10-06T16:19:43.194Z,2.92
2022-10-06T16:22:12.926Z,8.07
2022-10-06T16:24:40.327Z,4.22
2022-10-06T16:27:14.270Z,5.85
2022-10-06T16:29:41.534Z,6.00
2022-10-06T16:32:09.202Z,5.40
2022-10-06T16:34:36.361Z,5.13
2022-10-06T16:37:03.564Z,6.10
2022-10-06T16:39:30.528Z,6.03
2022-10-06T16:41:57.456Z,5.80
2022-10-06T16:44:24.686Z,5.45
2022-10-06T16:46:51.712Z,5.35
2022-10-06T16:49:19.697Z,6.05
2022-10-06T16:51:46.947Z,8.27
2022-10-06T16:54:15.497Z,7.78
2022-10-06T16:56:48.099Z,9.35
2022-10-06T16:59:21.186Z,5.18
2022-10-06T17:01:49.168Z,8.43
2022-10-06T17:04:20.366Z,9.88
2022-10-06T17:06:50.274Z,13.10
2022-10-06T17:09:20.154Z,7.47
2022-10-06T17:11:52.538Z,5.32
2022-10-06T17:14:21.877Z,9.35
2022-10-06T17:16:51.822Z,7.47
2022-10-06T17:19:21.504Z,7.13
2022-10-06T17:21:52.801Z,6.38
2022-10-06T17:24:25.861Z,9.30
2022-10-06T17:26:53.088Z,3.78
2022-10-06T17:29:21.754Z,6.32
2022-10-06T17:31:51.035Z,5.63
2022-10-06T17:34:21.905Z,4.30
2022-10-06T17:36:52.208Z,6.85
2022-10-06T17:39:21.682Z,8.48
2022-10-06T17:41:50.714Z,10.95
2022-10-06T17:44:23.264Z,5.47
2022-10-06T17:46:53.920Z,6.50
2022-10-06T17:49:22.606Z,6.45
2022-10-06T17:51:51.874Z,10.90
2022-10-06T17:54:21.514Z,5.25
2022-10-06T17:56:51.135Z,5.22
2022-10-06T17:59:24.606Z,6.38
2022-10-06T18:01:56.630Z,6.60
2022-10-06T18:04:24.308Z,5.68
2022-10-06T18:06:53.983Z,5.05
2022-10-06T18:09:21.990Z,5.55
2022-10-06T18:11:54.801Z,8.85
2022-10-06T18:14:27.197Z,4.75
2022-10-06T18:17:00.534Z,5.18
2022-10-06T18:19:34.177Z,8.55
2022-10-06T18:22:03.793Z,4.65
2022-10-06T18:24:31.798Z,7.15
2022-10-06T18:27:00.483Z,5.70
2022-10-06T18:29:33.771Z,7.35
2022-10-06T18:32:38.545Z,6.20
2022-10-06T18:37:35.708Z,5.03
2022-10-06T18:40:06.266Z,5.50
2022-10-06T18:42:33.413Z,11.27
2022-10-06T18:45:19.128Z,8.15
2022-10-06T18:48:04.632Z,6.65
2022-10-06T18:50:32.444Z,8.13
2022-10-06T18:52:59.507Z,3.00
2022-10-06T18:55:27.888Z,6.18
2022-10-06T18:57:55.153Z,7.93
2022-10-06T19:00:22.771Z,6.88
2022-10-06T19:02:52.130Z,5.13
2022-10-06T19:05:19.164Z,7.72
2022-10-06T19:07:46.428Z,4.15
2022-10-06T19:10:14.079Z,6.03
2022-10-06T19:12:40.990Z,6.47
2022-10-06T19:15:08.487Z,4.97
2022-10-06T19:17:35.853Z,7.95
2022-10-06T19:20:02.950Z,11.48
2022-10-06T19:22:29.903Z,5.47
2022-10-06T19:24:57.295Z,6.50
2022-10-06T19:27:25.598Z,12.45
2022-10-06T19:29:56.914Z,10.05
2022-10-06T19:32:32.125Z,4.18
2022-10-06T19:35:00.031Z,6.07
2022-10-06T19:37:29.665Z,5.80
2022-10-06T19:39:56.867Z,5.45
2022-10-06T19:42:42.734Z,6.70
2022-10-06T19:45:12.173Z,6.85
2022-10-06T19:47:40.641Z,5.60
2022-10-06T19:50:12.144Z,8.38
2022-10-06T19:52:41.356Z,7.28
2022-10-06T19:55:08.968Z,14.20
2022-10-06T19:57:35.841Z,7.28
2022-10-06T20:00:05.455Z,11.00
2022-10-06T20:02:42.892Z,7.00
2022-10-06T20:05:15.983Z,10.23
2022-10-06T20:07:45.804Z,9.32
2022-10-06T20:10:13.598Z,12.35
2022-10-06T20:12:44.004Z,15.70
2022-10-06T20:15:12.896Z,17.73
2022-10-06T20:17:42.446Z,18.38
2022-10-06T20:20:10.005Z,21.80
2022-10-06T20:22:37.253Z,20.95
2022-10-06T20:25:05.175Z,22.73
2022-10-06T20:27:32.050Z,19.95
2022-10-06T20:29:59.191Z,18.77
2022-10-06T20:32:26.268Z,24.65
2022-10-06T20:34:53.237Z,23.83
2022-10-06T20:37:20.409Z,21.75
2022-10-06T20:40:05.921Z,24.60
2022-10-06T20:42:33.680Z,22.65
2022-10-06T20:45:00.526Z,24.23
2022-10-06T20:47:27.912Z,27.00
2022-10-06T20:49:55.368Z,22.92
2022-10-06T20:52:23.962Z,21.20
2022-10-06T20:54:51.487Z,24.95
2022-10-06T20:57:18.660Z,23.60
2022-10-06T20:59:46.240Z,23.77
2022-10-06T21:02:13.733Z,24.25
2022-10-06T21:04:59.083Z,29.42
2022-10-06T21:07:26.195Z,24.40
2022-10-06T21:09:53.100Z,22.60
2022-10-06T21:12:20.332Z,24.55
2022-10-06T21:14:47.959Z,26.20
2022-10-06T21:17:14.897Z,30.55
2022-10-06T21:19:41.804Z,28.05
2022-10-06T21:22:08.886Z,22.13
2022-10-06T21:24:35.965Z,23.30
2022-10-06T21:27:03.344Z,24.92
2022-10-06T21:29:30.547Z,25.90
2022-10-06T21:32:16.028Z,24.50
2022-10-06T21:34:43.238Z,26.65
2022-10-06T21:37:10.593Z,29.50
2022-10-06T21:39:37.673Z,23.45
2022-10-06T21:42:04.899Z,22.48
2022-10-06T21:44:31.874Z,26.42
2022-10-06T21:47:02.548Z,30.08
2022-10-06T21:49:29.956Z,23.00
2022-10-06T21:51:58.602Z,28.65
2022-10-06T21:54:25.614Z,20.77
2022-10-06T21:56:53.094Z,27.27
2022-10-06T21:59:20.136Z,22.25
2022-10-06T22:01:49.822Z,23.30
2022-10-06T22:04:17.566Z,26.75
2022-10-06T22:06:47.719Z,22.95
2022-10-06T22:09:17.553Z,24.73
2022-10-06T22:11:45.479Z,25.92
2022-10-06T22:14:14.402Z,28.25
2022-10-06T22:16:42.490Z,25.00
2022-10-06T22:19:12.000Z,21.10
2022-10-06T22:21:41.794Z,28.60
2022-10-06T22:24:14.154Z,21.30
2022-10-06T22:26:42.782Z,27.77
2022-10-06T22:29:12.434Z,23.73
2022-10-06T22:31:41.276Z,27.58
2022-10-06T22:34:10.470Z,27.00
2022-10-06T22:36:37.768Z,27.45
2022-10-06T22:39:05.082Z,34.15
2022-10-06T22:41:32.548Z,29.10
2022-10-06T22:44:00.573Z,26.58
2022-10-06T22:46:30.087Z,22.38
2022-10-06T22:48:57.929Z,24.20
2022-10-06T22:51:25.738Z,25.55
2022-10-06T22:53:57.942Z,26.30
2022-10-06T22:56:31.733Z,33.15
2022-10-06T22:58:59.996Z,23.02
2022-10-06T23:01:28.653Z,25.52
2022-10-06T23:03:56.338Z,28.33
2022-10-06T23:06:24.573Z,25.27
2022-10-06T23:08:52.267Z,26.95
2022-10-06T23:11:21.205Z,24.90
2022-10-06T23:13:50.507Z,27.33
2022-10-06T23:16:19.747Z,27.02
2022-10-06T23:19:05.177Z,29.70
2022-10-06T23:21:32.421Z,24.70
2022-10-06T23:24:00.619Z,25.38
2022-10-06T23:26:28.164Z,23.10
2022-10-06T23:28:57.944Z,22.58
2022-10-06T23:31:25.483Z,24.27
2022-10-06T23:33:53.326Z,21.42
2022-10-06T23:36:20.957Z,28.58
2022-10-06T23:38:48.605Z,23.70
2022-10-06T23:41:16.314Z,21.83
2022-10-06T23:43:43.898Z,19.73
2022-10-06T23:46:10.968Z,24.50
2022-10-06T23:48:37.973Z,22.92
2022-10-06T23:51:08.172Z,20.38
2022-10-06T23:53:35.699Z,18.05
2022-10-06T23:56:03.707Z,19.20
2022-10-06T23:58:30.767Z,21.15
